Time;durP1;ratioP1;P1;durP2;ratioP2;P2;SDS_P1;SDS_P2;PMS_P1;PMS_P2;Temp;Humidity;BMP_temperature;BMP_pressure;BME280_temperature;BME280_humidity;BME280_pressure;Samples;Min_cycle;Max_cycle;Signal;HPM_P1;HPM_P2
2021/09/28 00:00:36;;;;;;;;;;;14.20;72.40;;;;;;5037248;28;20017;-85
2021/09/28 00:03:02;;;;;;;6.05;1.33;;;14.30;72.20;;;;;;5047889;28;20433;-85
2021/09/28 00:05:28;;;;;;;7.45;1.88;;;14.20;72.60;;;;;;5035907;28;20025;-85
2021/09/28 00:07:54;;;;;;;10.10;1.90;;;14.10;72.90;;;;;;5036495;28;20032;-85
2021/09/28 00:10:20;;;;;;;5.68;1.55;;;14.10;73.00;;;;;;5035689;28;20025;-85
2021/09/28 00:12:46;;;;;;;6.95;1.27;;;14.20;72.60;;;;;;5035900;28;20025;-85
2021/09/28 00:15:13;;;;;;;9.68;1.38;;;14.20;72.60;;;;;;5035963;28;20021;-85
2021/09/28 00:17:39;;;;;;;5.80;0.98;;;14.20;72.80;;;;;;5035662;28;20739;-85
2021/09/28 00:20:07;;;;;;;8.27;1.35;;;14.20;73.10;;;;;;5033927;28;20033;-84
2021/09/28 00:22:33;;;;;;;4.68;1.25;;;14.20;73.20;;;;;;5035775;28;20018;-85
2021/09/28 00:24:58;;;;;;;5.10;1.25;;;14.20;73.00;;;;;;5062575;28;20489;-84
2021/09/28 00:27:24;;;;;;;5.13;1.35;;;14.20;72.90;;;;;;5069880;28;20025;-84
2021/09/28 00:29:50;;;;;;;6.85;1.42;;;14.20;73.20;;;;;;5049919;28;20045;-85
2021/09/28 00:32:16;;;;;;;5.30;1.40;;;14.20;73.20;;;;;;5035640;28;20028;-85
2021/09/28 00:34:42;;;;;;;8.55;1.67;;;14.10;72.70;;;;;;5035485;28;20106;-85
2021/09/28 00:37:09;;;;;;;4.75;1.50;;;14.20;72.90;;;;;;5040728;28;20036;-85
2021/09/28 00:39:35;;;;;;;8.77;1.92;;;14.10;72.60;;;;;;5054221;28;20021;-85
2021/09/28 00:42:00;;;;;;;9.07;1.83;;;14.00;73.30;;;;;;5055426;28;20503;-85
2021/09/28 00:44:35;;;;;;;9.23;2.05;;;13.90;73.40;;;;;;5055894;28;20102;-85
2021/09/28 00:47:01;;;;;;;8.02;1.90;;;13.70;73.60;;;;;;5057076;28;20032;-84
2021/09/28 00:49:27;;;;;;;5.32;1.50;;;13.50;74.50;;;;;;5055964;28;20491;-84
2021/09/28 00:51:53;;;;;;;6.43;2.58;;;13.40;75.00;;;;;;5057541;28;20056;-84
2021/09/28 00:54:33;;;;;;;12.48;2.40;;;13.50;75.20;;;;;;5051402;28;20446;-85
2021/09/28 00:56:59;;;;;;;6.97;1.33;;;13.50;74.80;;;;;;5035688;28;20029;-84
2021/09/28 00:59:24;;;;;;;5.93;1.70;;;13.70;74.30;;;;;;5047851;28;20275;-85
2021/09/28 01:01:52;;;;;;;5.05;2.22;;;13.60;74.40;;;;;;5051408;28;20516;-84
2021/09/28 01:04:18;;;;;;;5.03;1.95;;;13.60;74.50;;;;;;5033824;28;20116;-84
2021/09/28 01:06:44;;;;;;;7.20;2.20;;;13.60;74.40;;;;;;5035308;28;20052;-85
2021/09/28 01:09:12;;;;;;;5.95;1.30;;;13.70;74.40;;;;;;5051118;28;20118;-85
2021/09/28 01:11:40;;;;;;;4.90;1.75;;;13.70;74.50;;;;;;5059299;28;20475;-85
2021/09/28 01:14:07;;;;;;;5.32;1.63;;;13.70;74.30;;;;;;5058099;28;20029;-84
2021/09/28 01:16:33;;;;;;;8.20;1.20;;;13.70;74.50;;;;;;5038999;28;20554;-84
2021/09/28 01:18:59;;;;;;;6.93;1.77;;;13.60;74.50;;;;;;5038959;28;20053;-85
2021/09/28 01:21:24;;;;;;;5.85;2.33;;;13.70;74.30;;;;;;5038997;28;20395;-84
2021/09/28 01:23:50;;;;;;;10.98;1.88;;;13.70;74.40;;;;;;5060619;28;20107;-85
2021/09/28 01:26:18;;;;;;;5.68;1.77;;;13.70;74.40;;;;;;5060058;28;20032;-85
2021/09/28 01:28:45;;;;;;;9.23;1.67;;;13.80;74.10;;;;;;5058743;28;20018;-85
2021/09/28 01:31:11;;;;;;;5.10;1.20;;;13.80;73.90;;;;;;5057406;28;20029;-85
2021/09/28 01:33:37;;;;;;;10.45;2.40;;;13.90;74.20;;;;;;5053503;28;20034;-85
2021/09/28 01:36:03;;;;;;;10.00;1.80;;;13.90;74.00;;;;;;5037148;28;20060;-84
2021/09/28 01:38:29;;;;;;;3.60;1.58;;;13.80;74.00;;;;;;5038669;28;20021;-84
2021/09/28 01:40:54;;;;;;;3.90;1.38;;;13.70;74.50;;;;;;5038517;28;20029;-85
2021/09/28 01:43:20;;;;;;;7.97;1.60;;;13.60;74.90;;;;;;5038720;28;20053;-84
2021/09/28 01:45:55;;;;;;;4.00;1.63;;;13.60;74.60;;;;;;5038578;28;20021;-84
2021/09/28 01:48:22;;;;;;;3.95;1.85;;;13.60;74.90;;;;;;5037340;28;20108;-85
2021/09/28 01:50:47;;;;;;;6.13;1.60;;;13.60;74.90;;;;;;5038231;28;20079;-84
2021/09/28 01:53:13;;;;;;;4.72;1.85;;;13.40;75.00;;;;;;5038636;28;20021;-85
2021/09/28 01:55:38;;;;;;;4.40;1.58;;;13.30;75.60;;;;;;5037098;28;20514;-85
2021/09/28 01:58:04;;;;;;;10.80;2.28;;;13.20;75.50;;;;;;5038252;28;20411;-85
2021/09/28 02:00:30;;;;;;;4.63;1.48;;;13.20;75.80;;;;;;5038440;28;20380;-84
2021/09/28 02:03:00;;;;;;;6.38;1.55;;;13.10;76.30;;;;;;5036907;28;20051;-85
2021/09/28 02:05:26;;;;;;;5.75;1.33;;;13.20;76.10;;;;;;5053667;28;20030;-85
2021/09/28 02:07:51;;;;;;;8.13;1.80;;;13.20;76.10;;;;;;5038072;28;20030;-84
2021/09/28 02:10:18;;;;;;;5.68;1.45;;;13.10;76.40;;;;;;5053253;28;20033;-85
2021/09/28 02:12:44;;;;;;;5.07;1.55;;;13.20;76.40;;;;;;5038328;28;20530;-84
2021/09/28 02:15:10;;;;;;;8.13;1.80;;;13.20;76.30;;;;;;5040101;28;20022;-85
2021/09/28 02:17:35;;;;;;;6.90;1.50;;;13.20;76.30;;;;;;5037957;28;20534;-84
2021/09/28 02:20:04;;;;;;;7.18;1.55;;;13.20;76.20;;;;;;5044443;28;20499;-84
2021/09/28 02:22:30;;;;;;;8.98;2.33;;;13.10;76.60;;;;;;5056808;28;20028;-84
2021/09/28 02:24:55;;;;;;;5.13;1.63;;;13.00;77.00;;;;;;5061377;28;20024;-84
2021/09/28 02:27:21;;;;;;;10.63;1.95;;;12.90;77.40;;;;;;5052421;28;20029;-85
2021/09/28 02:29:47;;;;;;;5.60;1.60;;;13.00;77.60;;;;;;5036680;28;20025;-85
2021/09/28 02:32:12;;;;;;;5.82;1.60;;;13.00;77.70;;;;;;5037666;28;20084;-84
2021/09/28 02:34:38;;;;;;;5.53;1.55;;;13.10;77.10;;;;;;5037265;28;20045;-84
2021/09/28 02:37:08;;;;;;;5.40;1.52;;;13.10;76.90;;;;;;5048541;28;20028;-84
2021/09/28 02:39:37;;;;;;;3.38;1.58;;;13.00;77.00;;;;;;5057720;28;20100;-84
2021/09/28 02:42:03;;;;;;;6.95;1.60;;;13.00;77.30;;;;;;5057467;28;20079;-84
2021/09/28 02:44:30;;;;;;;3.45;1.90;;;13.00;77.30;;;;;;5057411;28;20028;-84
2021/09/28 02:46:56;;;;;;;3.03;1.27;;;12.90;77.50;;;;;;5043915;28;20030;-85
2021/09/28 02:49:21;;;;;;;7.78;1.77;;;12.90;77.70;;;;;;5036002;28;20553;-85
2021/09/28 02:51:47;;;;;;;8.45;1.92;;;12.90;77.80;;;;;;5037185;28;20478;-84
2021/09/28 02:54:12;;;;;;;8.18;1.50;;;12.90;77.90;;;;;;5036212;28;20462;-84
2021/09/28 02:56:38;;;;;;;6.80;1.70;;;12.80;78.20;;;;;;5037208;28;20483;-84
2021/09/28 02:59:04;;;;;;;2.70;1.40;;;12.80;78.10;;;;;;5035672;28;20060;-85
2021/09/28 03:01:29;;;;;;;8.43;1.67;;;12.90;78.00;;;;;;5037342;28;20033;-85
2021/09/28 03:03:55;;;;;;;3.97;1.95;;;13.00;77.90;;;;;;5037110;28;20022;-84
2021/09/28 03:06:21;;;;;;;6.53;1.60;;;13.20;77.60;;;;;;5055008;28;20052;-84
2021/09/28 03:08:46;;;;;;;6.55;1.95;;;13.20;77.00;;;;;;5057141;28;20063;-85
2021/09/28 03:11:12;;;;;;;9.60;1.80;;;13.10;77.00;;;;;;5042214;28;20049;-84
2021/09/28 03:13:38;;;;;;;10.48;1.88;;;13.20;77.00;;;;;;5043808;28;20515;-84
2021/09/28 03:16:04;;;;;;;7.63;2.00;;;13.20;76.80;;;;;;5036708;28;20457;-84
2021/09/28 03:18:30;;;;;;;4.55;1.40;;;13.10;76.90;;;;;;5036828;28;20479;-85
2021/09/28 03:20:56;;;;;;;5.30;1.73;;;13.00;77.20;;;;;;5035372;28;20022;-84
2021/09/28 03:23:21;;;;;;;6.70;1.80;;;13.10;77.60;;;;;;5036588;28;20032;-85
2021/09/28 03:25:47;;;;;;;5.28;1.45;;;13.20;77.10;;;;;;5076749;28;20105;-84
2021/09/28 03:28:22;;;;;;;4.75;1.50;;;13.20;77.10;;;;;;5045637;28;20041;-84
2021/09/28 03:30:47;;;;;;;11.70;2.05;;;13.30;76.90;;;;;;5036936;28;20028;-85
2021/09/28 03:33:13;;;;;;;6.38;1.80;;;13.20;76.60;;;;;;5036417;28;20487;-84
2021/09/28 03:35:39;;;;;;;8.90;2.28;;;13.20;77.00;;;;;;5036300;28;20534;-84
2021/09/28 03:38:04;;;;;;;5.95;1.50;;;13.20;76.90;;;;;;5050767;28;20375;-85
2021/09/28 03:40:30;;;;;;;5.97;1.60;;;13.30;76.70;;;;;;5041329;28;20052;-84
2021/09/28 03:42:57;;;;;;;4.97;2.13;;;13.30;76.60;;;;;;5056360;28;20033;-85
2021/09/28 03:45:23;;;;;;;6.00;1.92;;;13.30;76.50;;;;;;5056323;28;20017;-84
2021/09/28 03:47:49;;;;;;;7.75;1.70;;;13.30;76.60;;;;;;5038536;28;20030;-84
2021/09/28 03:50:14;;;;;;;7.78;1.90;;;13.40;76.50;;;;;;5035621;28;20029;-84
2021/09/28 03:52:40;;;;;;;7.38;1.85;;;13.40;76.70;;;;;;5038471;28;20389;-85
2021/09/28 03:55:06;;;;;;;7.05;1.98;;;13.40;77.10;;;;;;5037689;28;20030;-84
2021/09/28 03:57:32;;;;;;;3.35;1.45;;;13.40;76.90;;;;;;5038216;28;20083;-84
2021/09/28 04:00:00;;;;;;;6.95;1.73;;;13.40;76.60;;;;;;5038553;28;20041;-85
2021/09/28 04:02:26;;;;;;;7.07;1.55;;;13.30;76.90;;;;;;5036060;28;20032;-85
2021/09/28 04:04:52;;;;;;;5.63;1.55;;;13.30;76.90;;;;;;5035463;28;20026;-85
2021/09/28 04:07:18;;;;;;;7.47;1.70;;;13.20;77.10;;;;;;5036019;28;20133;-85
2021/09/28 04:09:43;;;;;;;6.43;1.67;;;13.20;77.40;;;;;;5036012;28;20061;-85
2021/09/28 04:12:09;;;;;;;6.47;1.90;;;13.20;77.50;;;;;;5034642;28;20029;-85
2021/09/28 04:14:35;;;;;;;7.65;1.77;;;13.10;77.60;;;;;;5041992;28;20113;-85
2021/09/28 04:17:01;;;;;;;6.30;1.40;;;13.20;77.60;;;;;;5034471;28;20060;-85
2021/09/28 04:19:44;;;;;;;3.85;1.65;;;13.10;77.60;;;;;;5035666;28;20423;-81
2021/09/28 04:22:10;;;;;;;6.18;2.20;;;13.20;77.90;;;;;;5034389;28;20029;-82
2021/09/28 04:24:35;;;;;;;6.85;1.70;;;13.10;78.20;;;;;;5054892;28;20395;-83
2021/09/28 04:27:02;;;;;;;4.25;1.40;;;13.00;78.20;;;;;;5075671;28;20429;-83
2021/09/28 04:29:27;;;;;;;7.43;1.60;;;13.00;78.30;;;;;;5075502;28;20618;-82
2021/09/28 04:31:53;;;;;;;2.55;1.35;;;12.90;78.60;;;;;;5037755;28;20045;-83
2021/09/28 04:34:19;;;;;;;4.93;1.40;;;12.90;78.90;;;;;;5035401;28;20033;-83
2021/09/28 04:36:45;;;;;;;4.53;1.77;;;12.90;78.90;;;;;;5035486;28;20044;-83
2021/09/28 04:39:12;;;;;;;7.47;1.60;;;12.90;78.90;;;;;;5035298;28;20022;-83
2021/09/28 04:41:38;;;;;;;9.15;1.75;;;12.80;79.40;;;;;;5037382;28;20030;-83
2021/09/28 04:44:04;;;;;;;7.68;1.98;;;12.80;79.50;;;;;;5035437;28;20025;-78
2021/09/28 04:46:29;;;;;;;4.78;1.90;;;12.90;79.50;;;;;;5035599;28;20036;-84
2021/09/28 04:48:55;;;;;;;7.45;1.77;;;13.00;79.20;;;;;;5034117;28;20030;-85
2021/09/28 04:51:21;;;;;;;7.00;1.67;;;13.00;79.10;;;;;;5051149;28;20451;-88
2021/09/28 04:53:49;;;;;;;8.02;1.58;;;13.00;79.10;;;;;;5035843;28;20068;-86
2021/09/28 04:56:22;;;;;;;3.88;1.63;;;13.10;79.10;;;;;;5034071;28;20492;-85
2021/09/28 04:58:51;;;;;;;6.63;1.75;;;13.20;78.90;;;;;;5035476;28;20037;-88
2021/09/28 05:01:16;;;;;;;5.70;1.65;;;13.20;78.80;;;;;;5051138;28;20071;-90
2021/09/28 05:03:42;;;;;;;5.68;1.50;;;13.20;78.90;;;;;;5055752;28;20029;-89
2021/09/28 05:06:08;;;;;;;11.13;1.92;;;13.30;78.50;;;;;;5049830;28;20828;-86
2021/09/28 05:08:34;;;;;;;4.72;1.95;;;13.30;78.20;;;;;;5035496;28;20057;-86
2021/09/28 05:11:00;;;;;;;5.15;1.40;;;13.40;77.90;;;;;;5035691;28;20033;-86
2021/09/28 05:13:26;;;;;;;8.70;1.77;;;13.30;78.30;;;;;;5042890;28;20036;-88
2021/09/28 05:15:52;;;;;;;10.32;1.75;;;13.30;78.40;;;;;;5055248;28;20029;-86
2021/09/28 05:18:18;;;;;;;9.50;2.35;;;13.20;78.60;;;;;;5049103;28;20034;-84
2021/09/28 05:20:43;;;;;;;9.02;1.73;;;13.20;78.70;;;;;;5044711;28;20032;-82
2021/09/28 05:23:09;;;;;;;6.40;1.60;;;13.20;78.80;;;;;;5053044;28;20082;-86
2021/09/28 05:25:35;;;;;;;5.78;1.90;;;13.20;78.80;;;;;;5041059;28;20116;-84
2021/09/28 05:28:04;;;;;;;3.72;1.55;;;13.30;78.80;;;;;;5033574;28;20033;-82
2021/09/28 05:30:29;;;;;;;6.20;1.77;;;13.30;78.60;;;;;;5034653;28;20416;-81
2021/09/28 05:32:55;;;;;;;7.72;2.10;;;13.30;78.90;;;;;;5030831;28;20030;-82
2021/09/28 05:35:21;;;;;;;9.77;2.08;;;13.30;78.50;;;;;;5027563;28;20072;-81
2021/09/28 05:37:47;;;;;;;5.53;1.67;;;13.20;79.00;;;;;;5034531;28;20598;-81
2021/09/28 05:40:13;;;;;;;5.20;1.75;;;13.20;79.50;;;;;;5034764;28;20025;-82
2021/09/28 05:42:39;;;;;;;8.43;2.10;;;13.20;79.30;;;;;;5035251;28;20026;-82
2021/09/28 05:45:08;;;;;;;3.28;1.30;;;13.20;79.50;;;;;;5034948;28;20025;-81
2021/09/28 05:47:34;;;;;;;4.65;1.65;;;13.10;79.80;;;;;;5052889;28;20036;-81
2021/09/28 05:50:00;;;;;;;6.78;1.80;;;13.20;79.80;;;;;;5037671;28;20030;-81
2021/09/28 05:52:26;;;;;;;5.43;1.50;;;13.20;79.40;;;;;;5042327;28;20036;-82
2021/09/28 05:54:51;;;;;;;5.90;1.65;;;13.20;79.50;;;;;;5054664;28;20087;-82
2021/09/28 05:57:20;;;;;;;6.15;1.92;;;13.10;79.80;;;;;;5057268;28;20407;-82
2021/09/28 05:59:46;;;;;;;7.30;2.42;;;13.10;80.30;;;;;;5038283;28;20132;-82
2021/09/28 06:02:15;;;;;;;7.18;2.00;;;12.90;80.60;;;;;;5046974;28;20024;-81
2021/09/28 06:04:42;;;;;;;12.65;2.67;;;12.90;80.90;;;;;;5056709;28;20040;-81
2021/09/28 06:07:08;;;;;;;10.85;1.90;;;13.00;80.50;;;;;;5056159;28;20028;-82
2021/09/28 06:09:35;;;;;;;7.97;2.10;;;13.10;80.20;;;;;;5058215;28;20150;-82
2021/09/28 06:12:06;;;;;;;6.82;1.92;;;13.30;79.60;;;;;;5058354;28;20033;-82
2021/09/28 06:14:32;;;;;;;8.40;1.98;;;13.30;79.60;;;;;;5055422;28;20025;-82
2021/09/28 06:16:59;;;;;;;7.78;1.70;;;13.20;79.90;;;;;;5056690;28;20056;-82
2021/09/28 06:19:31;;;;;;;7.43;2.53;;;13.20;80.10;;;;;;5057873;28;20025;-82
2021/09/28 06:21:57;;;;;;;8.77;1.70;;;13.20;80.00;;;;;;5057780;28;20025;-82
2021/09/28 06:24:23;;;;;;;4.82;1.63;;;13.20;80.30;;;;;;5060112;28;20112;-82
2021/09/28 06:26:49;;;;;;;6.03;2.00;;;13.10;80.20;;;;;;5076695;28;20021;-82
2021/09/28 06:29:16;;;;;;;9.38;2.08;;;13.20;80.60;;;;;;5042938;28;20451;-82
2021/09/28 06:31:43;;;;;;;7.20;2.28;;;12.90;81.00;;;;;;5037903;28;20492;-82
2021/09/28 06:34:10;;;;;;;9.80;2.35;;;13.00;81.20;;;;;;5055424;28;20055;-82
2021/09/28 06:36:36;;;;;;;9.88;1.45;;;13.10;80.90;;;;;;5057563;28;20036;-82
2021/09/28 06:39:03;;;;;;;4.63;2.53;;;13.10;81.10;;;;;;5051794;28;20091;-82
2021/09/28 06:41:29;;;;;;;6.30;1.95;;;13.20;80.90;;;;;;5037599;28;20037;-82
2021/09/28 06:43:55;;;;;;;5.95;1.70;;;13.30;80.80;;;;;;5048506;28;20017;-82
2021/09/28 06:46:21;;;;;;;7.78;2.22;;;13.30;80.30;;;;;;5055673;28;20406;-81
2021/09/28 06:48:48;;;;;;;7.57;2.00;;;13.30;80.10;;;;;;5037503;28;20030;-82
2021/09/28 06:51:15;;;;;;;4.88;1.90;;;13.30;80.30;;;;;;5036343;28;20033;-82
2021/09/28 06:53:40;;;;;;;7.97;2.55;;;13.30;80.40;;;;;;5037471;28;20039;-82
2021/09/28 06:56:07;;;;;;;16.42;2.45;;;13.20;80.60;;;;;;5037079;28;20030;-82
2021/09/28 06:58:33;;;;;;;5.32;1.70;;;13.20;81.10;;;;;;5037454;28;20025;-83
2021/09/28 07:00:59;;;;;;;13.93;2.38;;;13.10;81.50;;;;;;5035963;28;20025;-83
2021/09/28 07:03:25;;;;;;;8.00;2.15;;;13.10;81.50;;;;;;5035214;28;20022;-82
2021/09/28 07:05:51;;;;;;;8.15;2.03;;;13.30;81.30;;;;;;5036707;28;20061;-83
2021/09/28 07:08:17;;;;;;;8.18;2.42;;;13.30;81.10;;;;;;5037176;28;20029;-83
2021/09/28 07:10:43;;;;;;;8.10;2.88;;;13.30;80.90;;;;;;5037100;28;20912;-83
2021/09/28 07:13:09;;;;;;;9.07;2.38;;;13.50;80.70;;;;;;5042176;28;20025;-83
2021/09/28 07:15:34;;;;;;;7.43;1.73;;;13.80;80.30;;;;;;5056846;28;20040;-83
2021/09/28 07:18:00;;;;;;;7.63;2.05;;;13.90;79.40;;;;;;5054764;28;20029;-83
2021/09/28 07:20:26;;;;;;;4.07;2.10;;;14.00;79.00;;;;;;5051378;28;20553;-83
2021/09/28 07:22:52;;;;;;;7.45;2.10;;;14.20;78.80;;;;;;5036543;28;20141;-84
2021/09/28 07:25:18;;;;;;;5.70;2.25;;;14.30;78.20;;;;;;5068923;28;20031;-83
2021/09/28 07:27:44;;;;;;;7.10;2.08;;;14.80;76.90;;;;;;5076622;28;20060;-83
2021/09/28 07:30:11;;;;;;;5.40;2.05;;;15.30;76.00;;;;;;5070787;28;20028;-83
2021/09/28 07:32:37;;;;;;;3.88;1.75;;;15.40;75.40;;;;;;5056648;28;20449;-83
2021/09/28 07:35:05;;;;;;;10.27;1.88;;;15.30;75.60;;;;;;5055838;28;20057;-83
2021/09/28 07:37:31;;;;;;;9.85;1.95;;;15.40;75.20;;;;;;5050319;28;20043;-83
2021/09/28 07:39:58;;;;;;;5.88;1.65;;;15.40;75.10;;;;;;5034940;28;20049;-83
2021/09/28 07:42:24;;;;;;;7.43;1.95;;;15.30;75.40;;;;;;5036296;28;20038;-83
2021/09/28 07:44:55;;;;;;;7.47;1.90;;;15.20;75.60;;;;;;5035999;28;20025;-83
2021/09/28 07:47:20;;;;;;;;;;;15.30;75.70;;;;;;5036929;28;20060;-83
2021/09/28 07:49:46;;;;;;;5.72;2.35;;;15.20;75.80;;;;;;5050376;28;20339;-83
2021/09/28 07:52:12;;;;;;;6.82;1.88;;;15.30;76.10;;;;;;5036121;28;20404;-83
2021/09/28 07:54:39;;;;;;;10.85;1.92;;;15.50;75.70;;;;;;5036092;28;20029;-82
2021/09/28 07:57:05;;;;;;;6.85;1.80;;;15.70;75.80;;;;;;5036005;28;20056;-83
2021/09/28 07:59:31;;;;;;;4.63;1.50;;;15.80;75.60;;;;;;5035918;28;20021;-83
2021/09/28 08:01:57;;;;;;;5.20;1.60;;;15.80;75.30;;;;;;5046030;28;20041;-83
2021/09/28 08:04:23;;;;;;;10.82;1.75;;;15.80;75.10;;;;;;5049923;28;20094;-84
2021/09/28 08:06:48;;;;;;;7.13;1.42;;;16.00;74.50;;;;;;5040136;28;20033;-83
2021/09/28 08:09:15;;;;;;;7.22;1.75;;;16.10;74.60;;;;;;5035842;28;20038;-83
2021/09/28 08:11:41;;;;;;;8.15;1.88;;;16.30;74.40;;;;;;5044313;28;20025;-83
2021/09/28 08:14:08;;;;;;;9.48;1.60;;;16.50;73.40;;;;;;5035732;28;20029;-84
2021/09/28 08:16:34;;;;;;;7.75;2.13;;;16.60;73.20;;;;;;5035822;28;20087;-83
2021/09/28 08:19:01;;;;;;;10.75;1.50;;;16.60;72.80;;;;;;5034692;28;20026;-83
2021/09/28 08:21:26;;;;;;;4.43;1.45;;;16.70;73.10;;;;;;5035756;28;20028;-83
2021/09/28 08:23:52;;;;;;;6.82;1.60;;;16.60;72.90;;;;;;5054403;28;20021;-82
2021/09/28 08:29:09;;;;;;;6.38;1.45;;;16.70;73.20;;;;;;5035823;28;20112;-83
2021/09/28 08:31:38;;;;;;;5.47;1.30;;;16.60;72.70;;;;;;5050949;28;20032;-83
2021/09/28 08:34:04;;;;;;;6.93;1.35;;;16.70;73.50;;;;;;5042403;28;20056;-83
2021/09/28 08:36:31;;;;;;;8.18;1.48;;;16.80;72.60;;;;;;5054039;28;20474;-84
2021/09/28 08:38:58;;;;;;;11.13;2.95;;;17.00;72.20;;;;;;5034235;28;20053;-83
2021/09/28 08:41:26;;;;;;;5.10;1.45;;;17.20;71.50;;;;;;5035395;28;20090;-83
2021/09/28 08:43:52;;;;;;;8.80;1.98;;;17.30;71.60;;;;;;5034212;28;20021;-83
2021/09/28 08:46:19;;;;;;;6.85;1.27;;;17.30;71.30;;;;;;5047045;28;20040;-84
2021/09/28 08:48:47;;;;;;;6.45;1.77;;;17.40;70.70;;;;;;5055130;28;20032;-84
2021/09/28 08:51:14;;;;;;;7.75;1.35;;;17.30;71.20;;;;;;5054861;28;20082;-84
2021/09/28 08:53:41;;;;;;;11.95;1.70;;;17.50;71.30;;;;;;5035201;28;20026;-83
2021/09/28 08:56:09;;;;;;;5.75;1.50;;;17.70;70.40;;;;;;5035259;28;20108;-84
2021/09/28 08:58:52;;;;;;;8.98;1.67;;;17.80;70.60;;;;;;5039189;28;20025;-84
2021/09/28 09:01:18;;;;;;;7.60;1.48;;;17.80;70.80;;;;;;5035258;28;20021;-84
2021/09/28 09:03:44;;;;;;;5.95;2.08;;;17.80;70.40;;;;;;5035111;28;20038;-83
2021/09/28 09:06:10;;;;;;;4.32;1.40;;;17.80;69.60;;;;;;5034675;28;20037;-84
2021/09/28 09:08:37;;;;;;;8.48;1.83;;;17.90;69.40;;;;;;5050585;28;20037;-84
2021/09/28 09:11:08;;;;;;;11.25;1.48;;;18.00;68.90;;;;;;5050058;28;20129;-84
2021/09/28 09:13:38;;;;;;;3.22;1.25;;;18.20;68.90;;;;;;5034912;28;20029;-84
2021/09/28 09:16:05;;;;;;;8.82;1.42;;;18.30;68.30;;;;;;5034950;28;20029;-83
2021/09/28 09:18:33;;;;;;;9.18;1.48;;;18.20;68.10;;;;;;5035115;28;20060;-85
2021/09/28 09:21:00;;;;;;;8.98;1.52;;;18.20;68.50;;;;;;5034687;28;20033;-83
2021/09/28 09:23:36;;;;;;;5.30;1.17;;;18.10;68.00;;;;;;5035166;28;20029;-84
2021/09/28 09:26:18;;;;;;;7.30;1.05;;;18.20;67.70;;;;;;5074940;28;20078;-83
2021/09/28 09:28:49;;;;;;;2.92;1.10;;;18.20;68.50;;;;;;5074874;28;20091;-84
2021/09/28 09:31:38;;;;;;;6.70;1.27;;;18.30;67.70;;;;;;5064844;28;20025;-83
2021/09/28 09:34:16;;;;;;;6.53;1.35;;;18.20;68.30;;;;;;5057936;28;20390;-84
2021/09/28 09:36:52;;;;;;;6.35;1.02;;;18.20;68.40;;;;;;5058819;28;20033;-83
2021/09/28 09:39:18;;;;;;;4.03;1.08;;;18.20;68.90;;;;;;5044928;28;20072;-84
2021/09/28 09:41:43;;;;;;;4.63;1.20;;;18.30;68.70;;;;;;5038711;28;20045;-83
2021/09/28 09:44:11;;;;;;;12.05;1.63;;;18.40;68.00;;;;;;5038137;28;20610;-83
2021/09/28 09:46:46;;;;;;;6.47;1.20;;;18.70;67.90;;;;;;5038314;28;20393;-83
2021/09/28 09:49:14;;;;;;;4.97;1.00;;;18.80;67.90;;;;;;5056556;28;20051;-83
2021/09/28 09:51:49;;;;;;;7.32;1.00;;;19.00;67.30;;;;;;5058411;28;20491;-84
2021/09/28 09:54:16;;;;;;;5.32;1.15;;;19.20;65.90;;;;;;5041347;28;20381;-84
2021/09/28 09:56:46;;;;;;;5.30;1.10;;;19.20;65.30;;;;;;5038221;28;20068;-83
2021/09/28 09:59:12;;;;;;;8.65;1.05;;;19.30;65.00;;;;;;5047499;28;20105;-82
2021/09/28 10:01:38;;;;;;;6.97;1.20;;;19.20;64.80;;;;;;5058645;28;20021;-83
2021/09/28 10:04:09;;;;;;;7.80;1.17;;;19.30;64.70;;;;;;5055934;28;20025;-84
2021/09/28 10:06:34;;;;;;;;;;;19.40;65.00;;;;;;5057120;28;20090;-83
2021/09/28 10:09:01;;;;;;;6.03;1.15;;;19.50;65.00;;;;;;5043599;28;19905;-83
2021/09/28 10:11:33;;;;;;;2.97;0.77;;;19.40;64.40;;;;;;5036891;28;20033;-84
2021/09/28 10:13:59;;;;;;;4.03;1.08;;;19.60;65.10;;;;;;5036854;28;20037;-84
2021/09/28 10:16:35;;;;;;;5.03;1.23;;;19.80;64.40;;;;;;5037874;28;20171;-84
2021/09/28 10:19:03;;;;;;;3.58;1.17;;;19.70;64.30;;;;;;5037829;28;20021;-83
2021/09/28 10:21:39;;;;;;;4.93;1.27;;;19.70;63.70;;;;;;5037749;28;20666;-82
2021/09/28 10:24:17;;;;;;;3.10;1.08;;;20.00;63.10;;;;;;5049950;28;20565;-81
2021/09/28 10:27:07;;;;;;;4.88;0.98;;;20.10;62.80;;;;;;5077668;28;20036;-82
2021/09/28 10:29:41;;;;;;;4.00;0.93;;;20.20;62.10;;;;;;5077757;28;20490;-83
2021/09/28 10:32:22;;;;;;;5.18;1.20;;;20.20;60.30;;;;;;5057429;28;20066;-82
2021/09/28 10:35:10;;;;;;;4.43;0.88;;;20.20;62.00;;;;;;5057096;28;20049;-82
2021/09/28 10:37:42;;;;;;;4.68;1.25;;;20.30;62.70;;;;;;5057369;28;20052;-84
2021/09/28 10:40:28;;;;;;;4.97;1.10;;;20.10;60.50;;;;;;5040271;28;20480;-83
2021/09/28 10:42:55;;;;;;;4.07;1.27;;;20.20;61.40;;;;;;5035904;28;20041;-84
2021/09/28 10:45:38;;;;;;;3.53;1.08;;;20.30;60.20;;;;;;5037920;28;20403;-83
2021/09/28 10:48:24;;;;;;;6.82;0.98;;;20.20;59.70;;;;;;5057297;28;20036;-83
2021/09/28 10:51:10;;;;;;;11.43;1.73;;;20.10;60.20;;;;;;5056274;28;20121;-83
2021/09/28 10:53:47;;;;;;;3.42;0.98;;;20.20;60.30;;;;;;5057392;28;20025;-82
2021/09/28 10:56:15;;;;;;;3.00;0.85;;;20.20;59.10;;;;;;5045145;28;20387;-83
2021/09/28 10:59:01;;;;;;;1.52;0.70;;;20.40;59.00;;;;;;5038572;28;20450;-83
2021/09/28 11:01:31;;;;;;;5.93;0.88;;;20.60;58.70;;;;;;5036931;28;20025;-83
2021/09/28 11:04:15;;;;;;;4.57;0.75;;;20.70;58.80;;;;;;5037107;28;20036;-84
2021/09/28 11:06:41;;;;;;;5.78;1.08;;;20.80;57.90;;;;;;5037228;28;20096;-83
2021/09/28 11:09:11;;;;;;;5.80;0.93;;;20.80;59.30;;;;;;5037179;28;20109;-81
2021/09/28 11:11:37;;;;;;;7.82;1.58;;;20.90;58.60;;;;;;5036998;28;20017;-83
2021/09/28 11:14:05;;;;;;;4.68;0.73;;;20.70;57.80;;;;;;5052454;28;20029;-83
2021/09/28 11:16:47;;;;;;;9.75;1.65;;;20.80;57.90;;;;;;5037103;28;20026;-83
2021/09/28 11:19:13;;;;;;;2.17;0.70;;;20.60;58.90;;;;;;5049863;28;20020;-82
2021/09/28 11:21:44;;;;;;;7.45;1.30;;;20.50;55.90;;;;;;5053008;28;20030;-83
2021/09/28 11:24:12;;;;;;;7.65;1.38;;;20.60;56.80;;;;;;5050124;28;20035;-83
2021/09/28 11:26:42;;;;;;;7.03;1.25;;;20.70;56.70;;;;;;5076707;28;20031;-83
2021/09/28 11:29:11;;;;;;;4.20;0.70;;;20.90;56.80;;;;;;5075687;28;20031;-82
2021/09/28 11:31:43;;;;;;;5.65;0.80;;;20.90;56.60;;;;;;5056560;28;20052;-82
2021/09/28 11:34:09;;;;;;;3.53;0.88;;;20.90;56.20;;;;;;5056256;28;20044;-84
2021/09/28 11:36:39;;;;;;;4.25;1.10;;;20.90;56.70;;;;;;5055155;28;20029;-84
2021/09/28 11:39:07;;;;;;;2.83;1.30;;;20.80;55.90;;;;;;5050631;28;20128;-82
2021/09/28 11:41:37;;;;;;;3.22;1.13;;;20.90;57.60;;;;;;5036308;28;20638;-82
2021/09/28 11:44:04;;;;;;;2.65;0.50;;;21.00;55.90;;;;;;5036291;28;20029;-83
2021/09/28 11:46:33;;;;;;;3.45;0.60;;;21.00;56.20;;;;;;5039022;28;20055;-83
2021/09/28 11:49:05;;;;;;;2.28;0.95;;;20.80;57.20;;;;;;5056185;28;20106;-83
2021/09/28 11:51:35;;;;;;;4.63;0.75;;;20.50;57.30;;;;;;5056636;28;20509;-82
2021/09/28 11:54:02;;;;;;;;;;;20.30;57.80;;;;;;5041370;28;20060;-81
2021/09/28 11:56:30;;;;;;;3.67;1.02;;;19.90;58.90;;;;;;5035935;28;19909;-82
2021/09/28 11:58:56;;;;;;;3.70;0.77;;;19.70;60.70;;;;;;5054605;28;20025;-83
2021/09/28 12:01:23;;;;;;;3.58;1.05;;;19.40;63.10;;;;;;5050665;28;20024;-82
2021/09/28 12:07:00;;;;;;;4.15;0.55;;;18.80;70.30;;;;;;5035690;28;20044;-84
2021/09/28 12:09:49;;;;;;;7.43;1.30;;;18.50;70.50;;;;;;5051470;28;20387;-84
2021/09/28 12:12:26;;;;;;;3.58;2.08;;;18.40;71.50;;;;;;5038311;28;20040;-85
2021/09/28 12:15:06;;;;;;;3.17;1.08;;;18.40;71.40;;;;;;5035504;28;20060;-84
2021/09/28 12:17:34;;;;;;;5.65;1.08;;;18.40;71.20;;;;;;5054247;28;20086;-84
2021/09/28 12:20:09;;;;;;;9.43;1.90;;;18.40;71.80;;;;;;5053855;28;20072;-84
2021/09/28 12:22:43;;;;;;;5.90;1.10;;;18.50;71.40;;;;;;5050085;28;20033;-83
2021/09/28 12:25:15;;;;;;;4.57;1.13;;;18.70;71.30;;;;;;5064940;28;20372;-84
2021/09/28 12:27:57;;;;;;;4.40;1.40;;;18.80;71.60;;;;;;5040833;28;20489;-85
2021/09/28 12:30:25;;;;;;;1.92;0.73;;;18.80;71.50;;;;;;5035466;28;20037;-84
2021/09/28 12:32:51;;;;;;;6.15;1.27;;;19.00;72.00;;;;;;5034786;28;20028;-84
2021/09/28 12:35:36;;;;;;;2.72;1.05;;;19.00;70.70;;;;;;5050424;28;20443;-83
2021/09/28 12:38:04;;;;;;;3.53;1.02;;;19.30;70.20;;;;;;5041202;28;20084;-84
2021/09/28 12:40:38;;;;;;;8.32;1.58;;;19.70;69.90;;;;;;5055201;28;20025;-85
2021/09/28 12:43:08;;;;;;;4.38;0.80;;;19.90;68.10;;;;;;5046519;28;20041;-84
2021/09/28 12:45:55;;;;;;;4.55;1.00;;;20.00;68.80;;;;;;5034283;28;20026;-85
2021/09/28 12:48:31;;;;;;;4.07;0.98;;;20.10;67.80;;;;;;5035366;28;20037;-85
2021/09/28 12:51:06;;;;;;;5.00;0.95;;;20.20;67.90;;;;;;5034889;28;20029;-84
2021/09/28 12:53:32;;;;;;;6.40;0.82;;;20.40;66.90;;;;;;5035640;28;20028;-85
2021/09/28 12:55:58;;;;;;;3.22;0.52;;;20.50;64.90;;;;;;5035124;28;20037;-84
2021/09/28 12:58:24;;;;;;;7.25;1.13;;;20.40;63.70;;;;;;5037557;28;20049;-84